createdAt,value
2018-04-02T00:00:33.741Z,78.80
2018-04-02T00:03:01.587Z,78.90
2018-04-02T00:05:29.344Z,78.60
2018-04-02T00:07:57.019Z,78.90
2018-04-02T00:10:24.715Z,78.90
2018-04-02T00:12:53.179Z,78.60
2018-04-02T00:15:20.931Z,78.60
2018-04-02T00:17:48.628Z,78.90
2018-04-02T00:20:17.097Z,79.40
2018-04-02T00:22:45.647Z,79.40
2018-04-02T00:25:13.271Z,79.40
2018-04-02T00:27:40.999Z,79.30
2018-04-02T00:30:08.760Z,79.10
2018-04-02T00:32:36.524Z,79.30
2018-04-02T00:35:04.474Z,79.50
2018-04-02T00:37:32.136Z,79.60
2018-04-02T00:39:59.822Z,79.40
2018-04-02T00:42:27.539Z,79.40
2018-04-02T00:44:55.169Z,79.40
2018-04-02T00:47:22.875Z,79.80
2018-04-02T00:49:50.723Z,79.80
2018-04-02T00:52:18.458Z,79.80
2018-04-02T00:54:48.155Z,80.00
2018-04-02T00:57:16.588Z,80.10
2018-04-02T00:59:45.160Z,80.10
2018-04-02T01:02:12.952Z,80.50
2018-04-02T01:04:40.695Z,80.30
2018-04-02T01:07:09.077Z,80.10
2018-04-02T01:09:36.776Z,80.00
2018-04-02T01:12:04.451Z,80.00
2018-04-02T01:14:33.115Z,80.10
2018-04-02T01:17:00.797Z,79.90
2018-04-02T01:19:28.464Z,79.90
2018-04-02T01:21:56.819Z,79.90
2018-04-02T01:24:25.406Z,79.90
2018-04-02T01:26:53.147Z,80.10
2018-04-02T01:29:20.950Z,80.20
2018-04-02T01:31:49.320Z,80.20
2018-04-02T01:34:16.999Z,80.20
2018-04-02T01:36:44.723Z,80.60
2018-04-02T01:39:12.295Z,80.50
2018-04-02T01:41:40.799Z,80.60
2018-04-02T01:44:10.678Z,80.50
2018-04-02T01:46:38.365Z,80.50
2018-04-02T01:49:06.027Z,80.40
2018-04-02T01:51:34.437Z,80.90
2018-04-02T01:54:02.252Z,80.80
2018-04-02T01:56:29.971Z,80.70
2018-04-02T01:58:57.555Z,80.80
2018-04-02T02:01:25.927Z,80.70
2018-04-02T02:03:53.591Z,80.90
2018-04-02T02:06:21.349Z,81.30
2018-04-02T02:08:49.136Z,81.30
2018-04-02T02:11:16.869Z,81.40
2018-04-02T02:13:44.462Z,81.40
2018-04-02T02:16:12.156Z,81.60
2018-04-02T02:18:40.751Z,81.50
2018-04-02T02:21:08.340Z,81.50
2018-04-02T02:23:36.041Z,81.50
2018-04-02T02:26:03.650Z,81.70
2018-04-02T02:28:31.338Z,81.90
2018-04-02T02:30:59.016Z,81.80
2018-04-02T02:33:27.383Z,82.00
2018-04-02T02:35:55.856Z,82.10
2018-04-02T02:38:23.527Z,81.90
2018-04-02T02:40:54.373Z,82.20
2018-04-02T02:43:21.984Z,82.30
2018-04-02T02:45:49.670Z,82.20
2018-04-02T02:48:17.472Z,82.30
2018-04-02T02:50:45.054Z,82.30
2018-04-02T02:53:12.700Z,82.30
2018-04-02T02:55:41.253Z,82.30
2018-04-02T02:58:08.894Z,82.30
2018-04-02T03:00:36.654Z,82.40
2018-04-02T03:03:04.726Z,82.50
2018-04-02T03:05:32.371Z,82.70
2018-04-02T03:07:59.989Z,82.70
2018-04-02T03:10:27.597Z,82.50
2018-04-02T03:12:56.281Z,82.80
2018-04-02T03:15:23.882Z,83.00
2018-04-02T03:17:51.543Z,83.30
2018-04-02T03:20:19.233Z,83.30
2018-04-02T03:22:46.838Z,83.10
2018-04-02T03:25:14.608Z,83.10
2018-04-02T03:27:42.326Z,83.40
2018-04-02T03:30:09.961Z,83.40
2018-04-02T03:32:37.669Z,83.50
2018-04-02T03:35:05.720Z,83.40
2018-04-02T03:37:34.451Z,83.20
2018-04-02T03:40:02.104Z,83.20
2018-04-02T03:42:30.053Z,82.90
2018-04-02T03:44:57.820Z,82.70
2018-04-02T03:47:26.610Z,82.70
2018-04-02T03:49:55.444Z,83.10
2018-04-02T03:52:24.153Z,83.00
2018-04-02T03:54:51.835Z,82.80
2018-04-02T03:57:19.526Z,82.70
2018-04-02T03:59:47.140Z,82.50
2018-04-02T04:02:15.483Z,82.80
2018-04-02T04:04:43.107Z,82.80
2018-04-02T04:07:10.938Z,82.60
2018-04-02T04:09:39.343Z,82.60
2018-04-02T04:12:07.727Z,82.60
2018-04-02T04:14:35.321Z,82.60
2018-04-02T04:17:03.130Z,82.60
2018-04-02T04:19:31.777Z,82.50
2018-04-02T04:21:59.468Z,82.40
2018-04-02T04:24:27.850Z,82.40
2018-04-02T04:26:55.750Z,82.40
2018-04-02T04:29:23.927Z,82.50
2018-04-02T04:31:51.593Z,82.30
2018-04-02T04:34:19.266Z,82.20
2018-04-02T04:36:46.854Z,82.40
2018-04-02T04:39:14.585Z,82.80
2018-04-02T04:41:42.291Z,83.00
2018-04-02T04:44:09.908Z,83.00
2018-04-02T04:46:37.693Z,83.00
2018-04-02T04:49:05.398Z,83.00
2018-04-02T04:51:33.085Z,82.80
2018-04-02T04:54:00.729Z,82.70
2018-04-02T04:56:28.945Z,82.90
2018-04-02T04:58:56.600Z,82.90
2018-04-02T05:01:24.252Z,83.00
2018-04-02T05:03:51.951Z,83.00
2018-04-02T05:06:19.625Z,82.90
2018-04-02T05:08:47.327Z,82.90
2018-04-02T05:11:15.090Z,82.80
2018-04-02T05:13:42.683Z,82.70
2018-04-02T05:16:10.330Z,82.80
2018-04-02T05:18:39.022Z,82.80
2018-04-02T05:21:06.738Z,82.70
2018-04-02T05:23:35.129Z,82.50
2018-04-02T05:26:02.820Z,82.40
2018-04-02T05:28:30.459Z,82.40
2018-04-02T05:30:58.190Z,82.50
2018-04-02T05:33:25.822Z,82.20
2018-04-02T05:35:53.487Z,82.30
2018-04-02T05:38:24.736Z,82.10
2018-04-02T05:40:52.475Z,82.00
2018-04-02T05:43:20.141Z,81.80
2018-04-02T05:45:47.767Z,82.00
2018-04-02T05:48:16.140Z,81.30
2018-04-02T05:50:43.846Z,81.30
2018-04-02T05:53:11.475Z,81.00
2018-04-02T05:55:39.184Z,80.70
2018-04-02T05:58:06.851Z,80.60
2018-04-02T06:00:35.299Z,80.50
2018-04-02T06:03:02.985Z,80.40
2018-04-02T06:05:30.653Z,80.40
2018-04-02T06:07:58.870Z,80.20
2018-04-02T06:10:27.316Z,79.80
2018-04-02T06:12:55.720Z,79.50
2018-04-02T06:15:23.437Z,79.50
2018-04-02T06:17:51.140Z,79.40
2018-04-02T06:20:18.777Z,79.00
2018-04-02T06:22:46.426Z,78.80
2018-04-02T06:25:14.477Z,78.00
2018-04-02T06:27:42.120Z,78.40
2018-04-02T06:30:09.766Z,77.80
2018-04-02T06:32:37.491Z,77.80
2018-04-02T06:35:05.207Z,77.80
2018-04-02T06:37:33.490Z,77.40
2018-04-02T06:40:01.177Z,76.80
2018-04-02T06:42:28.892Z,76.60
2018-04-02T06:44:56.691Z,76.40
2018-04-02T06:47:24.366Z,75.60
2018-04-02T06:49:52.025Z,75.70
2018-04-02T06:52:19.772Z,75.40
2018-04-02T06:54:47.513Z,75.00
2018-04-02T06:57:15.183Z,75.50
2018-04-02T06:59:43.114Z,75.30
2018-04-02T07:02:11.176Z,74.90
2018-04-02T07:04:41.720Z,74.10
2018-04-02T07:07:09.352Z,74.20
2018-04-02T07:09:37.981Z,73.20
2018-04-02T07:12:06.113Z,73.00
2018-04-02T07:14:33.783Z,72.30
2018-04-02T07:17:02.312Z,72.20
2018-04-02T07:19:30.729Z,72.20
2018-04-02T07:21:58.411Z,72.20
2018-04-02T07:24:27.770Z,73.20
2018-04-02T07:26:56.255Z,72.00
2018-04-02T07:29:24.153Z,72.00
2018-04-02T07:31:51.955Z,71.50
2018-04-02T07:34:19.610Z,71.20
2018-04-02T07:36:47.288Z,70.80
2018-04-02T07:39:15.016Z,70.80
2018-04-02T07:41:43.403Z,70.40
2018-04-02T07:44:11.118Z,70.40
2018-04-02T07:46:38.925Z,69.40
2018-04-02T07:49:07.821Z,69.80
2018-04-02T07:51:35.478Z,70.00
2018-04-02T07:54:03.426Z,69.40
2018-04-02T07:56:32.400Z,68.80
2018-04-02T07:59:00.851Z,68.60
2018-04-02T08:01:31.742Z,68.60
2018-04-02T08:04:01.107Z,68.20
2018-04-02T08:06:31.844Z,68.90
2018-04-02T08:09:00.306Z,67.80
2018-04-02T08:11:33.860Z,67.00
2018-04-02T08:14:02.462Z,65.10
2018-04-02T08:16:31.317Z,66.00
2018-04-02T08:18:58.999Z,63.60
2018-04-02T08:21:29.840Z,64.90
2018-04-02T08:23:58.307Z,62.90
2018-04-02T08:26:27.078Z,64.70
2018-04-02T08:28:55.056Z,64.70
2018-04-02T08:31:23.468Z,63.90
2018-04-02T08:33:51.301Z,63.80
2018-04-02T08:36:19.727Z,64.90
2018-04-02T08:38:47.694Z,64.80
2018-04-02T08:41:15.705Z,64.10
2018-04-02T08:43:43.428Z,63.80
2018-04-02T08:46:12.625Z,62.30
2018-04-02T08:48:40.429Z,63.20
2018-04-02T08:51:08.322Z,62.00
2018-04-02T08:53:36.169Z,63.10
2018-04-02T08:56:03.866Z,62.90
2018-04-02T08:58:31.550Z,62.50
2018-04-02T09:00:59.247Z,62.00
2018-04-02T09:03:27.012Z,62.60
2018-04-02T09:05:54.799Z,61.30
2018-04-02T09:08:22.497Z,60.70
2018-04-02T09:10:53.264Z,60.30
2018-04-02T09:13:21.197Z,60.70
2018-04-02T09:15:48.864Z,58.80
2018-04-02T09:18:16.982Z,58.40
2018-04-02T09:20:44.813Z,58.80
2018-04-02T09:23:12.504Z,57.00
2018-04-02T09:25:40.345Z,56.10
2018-04-02T09:28:08.277Z,55.30
2018-04-02T09:30:36.152Z,54.20
2018-04-02T09:35:46.045Z,53.80
2018-04-02T09:38:15.486Z,53.80
2018-04-02T09:40:44.272Z,52.30
2018-04-02T09:43:12.705Z,51.10
2018-04-02T09:45:40.400Z,50.90
2018-04-02T09:48:08.525Z,51.30
2018-04-02T09:50:37.064Z,48.80
2018-04-02T09:53:05.917Z,48.70
2018-04-02T09:55:34.030Z,52.80
2018-04-02T09:58:02.520Z,50.30
2018-04-02T10:00:34.086Z,50.90
2018-04-02T10:03:02.781Z,51.30
2018-04-02T10:05:31.316Z,51.50
2018-04-02T10:07:59.250Z,52.20
2018-04-02T10:10:27.142Z,52.60
2018-04-02T10:12:55.318Z,53.70
2018-04-02T10:15:23.309Z,51.80
2018-04-02T10:17:51.289Z,54.10
2018-04-02T10:20:20.454Z,52.40
2018-04-02T10:22:48.167Z,52.40
2018-04-02T10:25:16.212Z,53.90
2018-04-02T10:27:45.111Z,53.40
2018-04-02T10:30:12.850Z,53.40
2018-04-02T10:32:40.899Z,54.90
2018-04-02T10:35:08.707Z,54.20
2018-04-02T10:37:36.646Z,53.40
2018-04-02T10:40:05.244Z,54.30
2018-04-02T10:42:33.911Z,54.90
2018-04-02T10:45:01.817Z,54.80
2018-04-02T10:47:29.740Z,55.50
2018-04-02T10:49:57.766Z,53.90
2018-04-02T10:52:25.678Z,54.10
2018-04-02T10:54:53.969Z,54.00
2018-04-02T10:57:21.779Z,52.90
2018-04-02T10:59:49.737Z,52.30
2018-04-02T11:02:17.618Z,52.60
2018-04-02T11:04:46.153Z,52.90
2018-04-02T11:07:14.826Z,52.20
2018-04-02T11:09:42.678Z,52.80
2018-04-02T11:12:10.555Z,51.70
2018-04-02T11:14:38.592Z,52.60
2018-04-02T11:17:07.300Z,49.20
2018-04-02T11:19:35.111Z,50.70
2018-04-02T11:22:03.051Z,49.40
2018-04-02T11:24:31.351Z,49.20
2018-04-02T11:26:59.087Z,50.50
2018-04-02T11:29:27.017Z,49.40
2018-04-02T11:31:54.780Z,49.90
2018-04-02T11:34:22.425Z,50.80
2018-04-02T11:36:50.193Z,51.40
2018-04-02T11:39:18.830Z,48.50
2018-04-02T11:41:46.501Z,48.90
2018-04-02T11:44:14.239Z,47.40
2018-04-02T11:46:42.193Z,48.20
2018-04-02T11:49:09.854Z,45.90
2018-04-02T11:51:37.725Z,45.70
2018-04-02T11:54:05.446Z,47.70
2018-04-02T11:56:33.195Z,44.70
2018-04-02T11:59:00.974Z,46.70
2018-04-02T12:01:33.405Z,45.00
2018-04-02T12:04:01.475Z,45.10
2018-04-02T12:06:32.175Z,43.30
2018-04-02T12:08:59.823Z,44.50
2018-04-02T12:11:28.796Z,42.60
2018-04-02T12:13:57.213Z,42.60
2018-04-02T12:16:24.896Z,42.70
2018-04-02T12:18:52.614Z,42.40
2018-04-02T12:21:20.647Z,41.70
2018-04-02T12:23:48.677Z,41.80
2018-04-02T12:26:16.663Z,41.50
2018-04-02T12:28:44.356Z,42.40
2018-04-02T12:31:12.669Z,44.00
2018-04-02T12:33:40.423Z,42.60
2018-04-02T12:36:08.257Z,44.60
2018-04-02T12:38:36.070Z,41.60
2018-04-02T12:41:04.810Z,42.30
2018-04-02T12:43:32.526Z,42.20
2018-04-02T12:46:00.230Z,42.20
2018-04-02T12:48:28.065Z,41.40
2018-04-02T12:50:55.751Z,42.00
2018-04-02T12:53:23.684Z,41.30
2018-04-02T12:55:51.958Z,40.60
2018-04-02T12:58:19.736Z,41.00
2018-04-02T13:00:47.696Z,41.50
2018-04-02T13:03:15.440Z,41.60
2018-04-02T13:05:43.901Z,43.60
2018-04-02T13:08:11.546Z,43.60
2018-04-02T13:10:39.360Z,43.80
2018-04-02T13:13:07.891Z,42.10
2018-04-02T13:15:35.583Z,42.10
2018-04-02T13:18:03.311Z,42.20
2018-04-02T13:20:30.969Z,42.80
2018-04-02T13:22:58.648Z,43.60
2018-04-02T13:25:27.408Z,42.90
2018-04-02T13:27:56.065Z,42.80
2018-04-02T13:30:23.793Z,42.50
2018-04-02T13:32:51.569Z,43.10
2018-04-02T13:35:19.299Z,45.00
2018-04-02T13:37:47.018Z,43.90
2018-04-02T13:40:15.012Z,45.60
2018-04-02T13:42:42.962Z,47.30
2018-04-02T13:45:11.239Z,45.50
2018-04-02T13:47:40.571Z,48.10
2018-04-02T13:50:08.833Z,42.60
2018-04-02T13:52:36.550Z,44.90
2018-04-02T13:55:04.598Z,45.70
2018-04-02T13:57:33.143Z,52.40
2018-04-02T14:00:00.886Z,52.50
2018-04-02T14:02:31.109Z,49.60
2018-04-02T14:04:59.219Z,52.10
2018-04-02T14:07:30.982Z,52.50
2018-04-02T14:09:58.691Z,53.40
2018-04-02T14:12:27.030Z,54.80
2018-04-02T14:14:55.643Z,54.50
2018-04-02T14:17:23.542Z,53.60
2018-04-02T14:19:53.066Z,54.20
2018-04-02T14:22:20.986Z,57.10
2018-04-02T14:24:48.770Z,54.60
2018-04-02T14:27:16.996Z,53.50
2018-04-02T14:29:44.828Z,55.80
2018-04-02T14:32:12.808Z,55.30
2018-04-02T14:34:41.211Z,54.90
2018-04-02T14:37:09.677Z,53.50
2018-04-02T14:39:38.076Z,53.50
2018-04-02T14:42:06.502Z,56.60
2018-04-02T14:44:35.535Z,56.60
2018-04-02T14:47:03.202Z,54.70
2018-04-02T14:52:09.355Z,54.20
2018-04-02T14:54:37.858Z,55.40
2018-04-02T14:57:05.569Z,56.30
2018-04-02T14:59:33.266Z,53.00
2018-04-02T15:02:00.979Z,53.10
2018-04-02T15:04:28.654Z,51.10
2018-04-02T15:06:57.879Z,50.90
2018-04-02T15:09:25.518Z,49.70
2018-04-02T15:11:53.409Z,50.30
2018-04-02T15:14:21.373Z,53.50
2018-04-02T15:16:49.517Z,51.10
2018-04-02T15:19:17.204Z,51.00
2018-04-02T15:21:45.666Z,46.40
2018-04-02T15:24:13.386Z,46.40
2018-04-02T15:26:41.225Z,48.70
2018-04-02T15:29:09.211Z,47.50
2018-04-02T15:31:37.024Z,46.70
2018-04-02T15:34:04.669Z,45.80
2018-04-02T15:36:32.431Z,45.80
2018-04-02T15:39:00.440Z,45.00
2018-04-02T15:41:28.362Z,43.50
2018-04-02T15:43:56.373Z,45.90
2018-04-02T15:46:24.111Z,43.00
2018-04-02T15:48:52.639Z,42.30
2018-04-02T15:51:20.527Z,42.80
2018-04-02T15:53:49.318Z,42.50
2018-04-02T15:56:17.004Z,42.60
2018-04-02T15:58:44.987Z,42.30
2018-04-02T16:01:13.228Z,41.50
2018-04-02T16:03:41.123Z,41.20
2018-04-02T16:06:10.655Z,42.20
2018-04-02T16:08:38.302Z,42.10
2018-04-02T16:11:06.045Z,42.80
2018-04-02T16:13:33.735Z,41.80
2018-04-02T16:16:02.566Z,42.00
2018-04-02T16:18:30.948Z,42.40
2018-04-02T16:20:58.772Z,42.30
2018-04-02T16:23:26.473Z,42.40
2018-04-02T16:25:55.437Z,42.30
2018-04-02T16:28:23.440Z,43.20
2018-04-02T16:30:52.225Z,42.80
2018-04-02T16:33:20.208Z,42.80
2018-04-02T16:35:48.236Z,43.40
2018-04-02T16:38:16.657Z,43.40
2018-04-02T16:40:44.427Z,43.10
2018-04-02T16:43:13.218Z,43.00
2018-04-02T16:45:40.991Z,43.90
2018-04-02T16:48:08.672Z,44.10
2018-04-02T16:50:36.358Z,44.00
2018-04-02T16:53:04.120Z,43.70
2018-04-02T16:55:31.982Z,43.50
2018-04-02T16:57:59.782Z,44.60
2018-04-02T17:00:31.755Z,45.40
2018-04-02T17:03:00.324Z,44.20
2018-04-02T17:05:29.711Z,44.40
2018-04-02T17:07:57.372Z,44.40
2018-04-02T17:10:25.378Z,43.20
2018-04-02T17:12:53.475Z,43.40
2018-04-02T17:15:21.168Z,43.80
2018-04-02T17:17:49.688Z,44.30
2018-04-02T17:20:17.365Z,44.20
2018-04-02T17:22:45.370Z,44.60
2018-04-02T17:25:13.139Z,44.60
2018-04-02T17:27:40.833Z,43.80
2018-04-02T17:30:09.385Z,44.10
2018-04-02T17:32:37.351Z,44.10
2018-04-02T17:35:05.258Z,43.80
2018-04-02T17:37:33.446Z,43.70
2018-04-02T17:40:01.142Z,45.00
2018-04-02T17:42:28.886Z,42.90
2018-04-02T17:44:56.772Z,44.20
2018-04-02T17:47:24.768Z,44.10
2018-04-02T17:49:53.307Z,43.70
2018-04-02T17:52:20.976Z,44.20
2018-04-02T17:54:48.824Z,43.90
2018-04-02T17:57:16.729Z,43.60
2018-04-02T17:59:44.638Z,43.70
2018-04-02T18:02:13.522Z,43.80
2018-04-02T18:04:41.183Z,43.90
2018-04-02T18:07:09.861Z,44.00
2018-04-02T18:09:37.867Z,44.20
2018-04-02T18:12:06.401Z,44.30
2018-04-02T18:14:34.847Z,44.60
2018-04-02T18:17:04.862Z,44.50
2018-04-02T18:19:33.987Z,46.10
2018-04-02T18:22:01.810Z,44.70
2018-04-02T18:24:30.877Z,44.30
2018-04-02T18:27:00.218Z,43.90
2018-04-02T18:29:28.106Z,45.20
2018-04-02T18:31:55.869Z,45.20
2018-04-02T18:34:24.056Z,44.40
2018-04-02T18:36:51.782Z,44.00
2018-04-02T18:39:19.615Z,44.30
2018-04-02T18:41:47.975Z,44.60
2018-04-02T18:44:16.819Z,44.00
2018-04-02T18:46:44.634Z,43.70
2018-04-02T18:49:12.604Z,44.20
2018-04-02T18:51:41.110Z,44.60
2018-04-02T18:54:08.895Z,44.60
2018-04-02T18:56:36.543Z,44.50
2018-04-02T18:59:04.322Z,44.10
2018-04-02T19:01:32.398Z,43.80
2018-04-02T19:04:00.186Z,44.70
2018-04-02T19:06:28.868Z,43.20
2018-04-02T19:08:57.020Z,44.30
2018-04-02T19:11:24.716Z,43.40
2018-04-02T19:13:53.829Z,44.00
2018-04-02T19:16:21.974Z,44.30
2018-04-02T19:18:50.289Z,44.10
2018-04-02T19:21:18.384Z,44.40
2018-04-02T19:23:46.086Z,45.40
2018-04-02T19:26:13.894Z,44.10
2018-04-02T19:28:41.624Z,44.40
2018-04-02T19:31:13.118Z,44.40
2018-04-02T19:33:41.803Z,44.90
2018-04-02T19:36:10.582Z,44.40
2018-04-02T19:38:38.417Z,43.90
2018-04-02T19:41:06.923Z,44.40
2018-04-02T19:43:34.894Z,44.40
2018-04-02T19:46:02.945Z,44.70
2018-04-02T19:48:31.531Z,45.70
2018-04-02T19:50:59.398Z,45.60
2018-04-02T19:53:36.028Z,44.90
2018-04-02T19:56:03.712Z,45.50
2018-04-02T19:58:32.391Z,45.80
2018-04-02T20:01:00.510Z,46.00
2018-04-02T20:03:29.359Z,46.30
2018-04-02T20:05:57.293Z,45.40
2018-04-02T20:08:25.305Z,45.60
2018-04-02T20:10:53.488Z,45.50
2018-04-02T20:13:21.322Z,45.40
2018-04-02T20:15:49.058Z,45.60
2018-04-02T20:18:20.840Z,45.20
2018-04-02T20:20:48.804Z,46.60
2018-04-02T20:23:16.816Z,45.80
2018-04-02T20:25:45.463Z,45.70
2018-04-02T20:28:13.501Z,45.50
2018-04-02T20:30:41.334Z,44.80
2018-04-02T20:33:09.092Z,45.40
2018-04-02T20:35:36.802Z,46.70
2018-04-02T20:38:05.407Z,46.30
2018-04-02T20:40:33.182Z,46.30
2018-04-02T20:43:00.875Z,46.20
2018-04-02T20:45:28.760Z,46.20
2018-04-02T20:47:56.680Z,45.60
2018-04-02T20:50:24.952Z,46.00
2018-04-02T20:52:53.696Z,46.80
2018-04-02T20:55:22.955Z,46.10
2018-04-02T20:57:51.990Z,47.00
2018-04-02T21:00:19.811Z,46.90
2018-04-02T21:02:47.780Z,46.80
2018-04-02T21:05:16.184Z,47.00
2018-04-02T21:07:44.540Z,46.90
2018-04-02T21:10:13.296Z,47.20
2018-04-02T21:12:41.377Z,47.20
2018-04-02T21:15:09.260Z,47.30
2018-04-02T21:17:37.426Z,46.80
2018-04-02T21:20:06.059Z,47.60
2018-04-02T21:22:33.710Z,47.40
2018-04-02T21:25:01.685Z,46.10
2018-04-02T21:27:29.506Z,47.70
2018-04-02T21:29:58.041Z,48.80
2018-04-02T21:32:25.821Z,48.70
2018-04-02T21:34:53.633Z,47.10
2018-04-02T21:37:21.349Z,48.20
2018-04-02T21:39:49.778Z,48.50
2018-04-02T21:42:18.506Z,48.50
2018-04-02T21:44:47.072Z,48.30
2018-04-02T21:47:15.077Z,48.40
2018-04-02T21:49:43.028Z,48.10
2018-04-02T21:52:12.766Z,48.70
2018-04-02T21:54:40.418Z,48.70
2018-04-02T21:57:11.672Z,49.20
2018-04-02T21:59:39.438Z,48.70
2018-04-02T22:02:08.232Z,48.50
2018-04-02T22:04:36.758Z,48.50
2018-04-02T22:07:05.617Z,48.00
2018-04-02T22:09:34.445Z,47.90
2018-04-02T22:12:03.144Z,48.30
2018-04-02T22:14:31.013Z,48.20
2018-04-02T22:16:59.828Z,49.00
2018-04-02T22:19:28.726Z,49.70
2018-04-02T22:21:56.610Z,49.30
2018-04-02T22:24:24.232Z,48.40
2018-04-02T22:26:51.899Z,48.70
2018-04-02T22:29:19.625Z,49.20
2018-04-02T22:31:47.263Z,49.40
2018-04-02T22:34:15.305Z,49.20
2018-04-02T22:36:43.069Z,49.70
2018-04-02T22:39:11.549Z,49.40
2018-04-02T22:41:40.125Z,50.50
2018-04-02T22:44:08.722Z,50.60
2018-04-02T22:46:36.403Z,50.00
2018-04-02T22:49:04.071Z,49.60
2018-04-02T22:51:31.889Z,50.00
2018-04-02T22:53:59.684Z,50.20
2018-04-02T22:56:27.454Z,50.70
2018-04-02T22:58:55.195Z,49.50
2018-04-02T23:01:23.014Z,50.20
2018-04-02T23:03:50.886Z,49.30
2018-04-02T23:06:19.482Z,50.10
2018-04-02T23:08:47.120Z,49.10
2018-04-02T23:11:14.953Z,48.20
2018-04-02T23:13:43.647Z,49.90
2018-04-02T23:16:11.291Z,49.60
2018-04-02T23:18:39.030Z,49.00
2018-04-02T23:21:06.717Z,48.50
2018-04-02T23:23:34.567Z,49.90
2018-04-02T23:26:02.274Z,49.00
2018-04-02T23:28:29.975Z,48.60
2018-04-02T23:30:57.638Z,49.60
2018-04-02T23:33:25.281Z,49.80
2018-04-02T23:35:52.957Z,49.80
2018-04-02T23:38:20.793Z,50.40
2018-04-02T23:40:48.442Z,50.40
2018-04-02T23:43:16.111Z,50.60
2018-04-02T23:45:43.775Z,51.40
2018-04-02T23:48:11.543Z,51.80
2018-04-02T23:50:39.281Z,52.20
2018-04-02T23:53:06.965Z,53.40
2018-04-02T23:55:34.627Z,52.80
2018-04-02T23:58:02.328Z,52.60
